Laval-Ouest, Canada
Current Conditions -  °F | °C
As of 8:00 AM on Thursday 30 Oct 2014 (Local Time) from CYUL Reporting Station
Few Clouds Few Clouds  
Wind Chill: 34°   Ceiling: Unl
Heat Index: 39°   Visibility: 15mi
Dew Point: 34°   Wind: 8mph
Humidity: 81%   Direction: 290°WNW
Pressure: 29.95"   Gusts: NA
Location:  45.55°N, 73.87°W
Report Text: CYUL 301200Z 29007KT 15SM FEW015 FEW035 04/01 A2995 RMK CF1SC1 CF TR SLP143
Loading
Personal Weather Stations






























Interactive Weather Map New forecast layout! Learn more

10-Day Weather Forecast

Advertisements
Track Severe Weather on mobile